Search for airport 
image banner adimage banner adimage banner ad
image banner ad

8PN8 - Rorer Group

Located in Fort Washington, United States

ICAO - 8PN8, IATA -

Data provided by Airmate  

General information

Coordinates: N40°8'30" W75°11'19"
Elevation is 182 feet MSL.
Magnetic variation is -11° East
View others Airports in Pennsylvania

Operational data

Special qualification required
Current time UTC:
Current local time:
Weather at : KLOM - Wings Field ( 7 km )
METAR: KLOM 152235Z AUTO 31008KT 10SM CLR 23/14 A2978 RMK AO2 T02340142
View NOTAMs / SUP AIP / TFR affecting this airport [VIEW]
Communications frequencies: [VIEW]

Runways:

Airport contact information

Address: Fort Washington United States

Satellite view of 8PN8